createdAt,value
2023-02-13T00:00:09.487Z,14.50
2023-02-13T00:05:12.498Z,9.75
2023-02-13T00:10:16.808Z,12.25
2023-02-13T00:15:19.884Z,12.25
2023-02-13T00:20:22.864Z,13.75
2023-02-13T00:25:26.972Z,11.50
2023-02-13T00:30:29.737Z,13.50
2023-02-13T00:35:32.544Z,12.25
2023-02-13T00:40:36.991Z,10.50
2023-02-13T00:45:39.863Z,11.75
2023-02-13T00:50:42.598Z,8.50
2023-02-13T00:55:47.308Z,9.50
2023-02-13T01:00:52.003Z,11.25
2023-02-13T01:05:54.775Z,11.25
2023-02-13T01:10:59.544Z,11.50
2023-02-13T01:16:02.992Z,11.00
2023-02-13T01:21:07.753Z,8.50
2023-02-13T01:26:18.202Z,9.75
2023-02-13T01:31:21.565Z,11.00
2023-02-13T01:36:27.089Z,12.00
2023-02-13T01:41:32.460Z,9.25
2023-02-13T01:46:39.629Z,9.25
2023-02-13T01:51:43.620Z,10.00
2023-02-13T01:56:51.072Z,10.75
2023-02-13T02:01:55.278Z,7.25
2023-02-13T02:07:05.925Z,8.75
2023-02-13T02:12:19.303Z,11.00
2023-02-13T02:17:25.450Z,10.50
2023-02-13T02:23:19.962Z,8.75
2023-02-13T02:29:02.381Z,11.75
2023-02-13T02:34:22.316Z,8.25
2023-02-13T02:39:35.015Z,11.00
2023-02-13T02:44:46.310Z,11.75
2023-02-13T02:50:02.140Z,8.50
2023-02-13T02:55:12.337Z,8.00
2023-02-13T03:00:46.683Z,7.00
2023-02-13T03:06:14.098Z,12.25
2023-02-13T03:11:34.499Z,8.25
2023-02-13T03:16:54.915Z,8.50
2023-02-13T03:22:20.614Z,8.25
2023-02-13T03:27:53.790Z,8.25
2023-02-13T03:33:09.284Z,7.00
2023-02-13T03:38:19.802Z,6.75
2023-02-13T03:43:23.672Z,7.25
2023-02-13T03:48:48.141Z,7.25
2023-02-13T03:53:57.008Z,8.75
2023-02-13T03:59:17.599Z,8.00
2023-02-13T04:04:27.632Z,6.00
2023-02-13T04:09:33.945Z,7.00
2023-02-13T04:14:40.983Z,6.75
2023-02-13T04:19:43.833Z,6.25
2023-02-13T04:24:48.630Z,8.00
2023-02-13T04:29:51.397Z,6.50
2023-02-13T04:34:54.278Z,6.50
2023-02-13T04:39:58.420Z,7.50
2023-02-13T04:45:01.335Z,9.25
2023-02-13T04:50:04.493Z,7.25
2023-02-13T04:55:09.115Z,9.50
2023-02-13T05:00:12.829Z,6.25
2023-02-13T05:05:15.707Z,6.00
2023-02-13T05:10:20.208Z,6.75
2023-02-13T05:15:23.638Z,7.75
2023-02-13T05:20:26.529Z,5.50
2023-02-13T05:25:31.156Z,6.50
2023-02-13T05:30:33.924Z,5.25
2023-02-13T05:35:36.759Z,6.25
2023-02-13T05:40:40.849Z,6.50
2023-02-13T05:45:43.686Z,4.75
2023-02-13T05:50:47.622Z,5.00
2023-02-13T05:55:52.263Z,6.75
2023-02-13T06:00:57.424Z,4.75
2023-02-13T06:06:01.199Z,7.00
2023-02-13T06:11:05.916Z,6.50
2023-02-13T06:16:09.134Z,6.00
2023-02-13T06:21:12.136Z,5.00
2023-02-13T06:26:16.325Z,5.50
2023-02-13T06:31:19.259Z,5.00
2023-02-13T06:36:22.114Z,4.00
2023-02-13T06:41:26.243Z,5.50
2023-02-13T06:46:29.203Z,5.00
2023-02-13T06:51:32.028Z,3.75
2023-02-13T06:56:36.117Z,4.00
2023-02-13T07:01:38.863Z,4.75
2023-02-13T07:06:41.631Z,4.00
2023-02-13T07:11:45.751Z,7.00
2023-02-13T07:16:48.745Z,4.75
2023-02-13T07:21:51.580Z,4.50
2023-02-13T07:26:55.689Z,5.00
2023-02-13T07:31:58.523Z,4.50
2023-02-13T07:37:01.274Z,3.00
2023-02-13T07:42:05.841Z,1.25
2023-02-13T07:47:08.738Z,4.00
2023-02-13T07:52:11.522Z,5.00
2023-02-13T07:57:15.827Z,3.25
2023-02-13T08:02:18.616Z,3.75
2023-02-13T08:07:21.423Z,2.75
2023-02-13T08:12:25.755Z,3.75
2023-02-13T08:17:28.586Z,2.00
2023-02-13T08:22:31.391Z,3.00
2023-02-13T08:27:35.549Z,4.25
2023-02-13T08:32:53.031Z,2.50
2023-02-13T08:37:56.781Z,2.75
2023-02-13T08:43:06.619Z,3.50
2023-02-13T08:48:09.462Z,4.00
2023-02-13T08:53:12.269Z,4.00
2023-02-13T08:58:16.427Z,2.00
2023-02-13T09:03:19.238Z,2.75
2023-02-13T09:08:22.011Z,3.00
2023-02-13T09:13:26.234Z,11.00
2023-02-13T09:18:29.496Z,12.75
2023-02-13T09:23:33.076Z,9.25
2023-02-13T09:28:37.959Z,9.50
2023-02-13T09:33:41.018Z,7.00
2023-02-13T09:38:44.952Z,7.00
2023-02-13T09:43:52.060Z,5.50
2023-02-13T09:48:57.676Z,5.00
2023-02-13T09:54:02.571Z,3.75
2023-02-13T09:59:21.136Z,5.00
2023-02-13T10:04:32.903Z,3.75
2023-02-13T10:09:41.489Z,5.75
2023-02-13T10:14:55.884Z,5.50
2023-02-13T10:20:03.886Z,2.00
2023-02-13T10:25:13.377Z,5.00
2023-02-13T10:30:23.462Z,3.00
2023-02-13T10:35:30.721Z,3.00
2023-02-13T10:40:41.537Z,5.50
2023-02-13T10:45:58.245Z,2.00
2023-02-13T10:51:08.328Z,2.75
2023-02-13T10:56:26.286Z,2.00
2023-02-13T11:01:35.991Z,3.50
2023-02-13T11:06:43.550Z,2.00
2023-02-13T11:11:46.456Z,2.75
2023-02-13T11:16:57.047Z,4.00
2023-02-13T11:22:04.694Z,3.00
2023-02-13T11:27:12.888Z,2.75
2023-02-13T11:32:24.309Z,2.00
2023-02-13T11:37:30.016Z,2.50
2023-02-13T11:42:36.507Z,2.25
2023-02-13T11:47:43.175Z,3.00
2023-02-13T11:52:57.465Z,2.00
2023-02-13T11:58:02.375Z,2.75
2023-02-13T12:03:26.964Z,3.50
2023-02-13T12:08:30.974Z,4.00
2023-02-13T12:13:38.933Z,3.75
2023-02-13T12:18:47.277Z,3.00
2023-02-13T12:23:58.819Z,2.75
2023-02-13T12:29:17.325Z,11.25
2023-02-13T12:34:58.825Z,13.00
2023-02-13T12:40:24.678Z,11.25
2023-02-13T12:45:38.521Z,10.50
2023-02-13T12:50:58.360Z,7.50
2023-02-13T12:56:27.113Z,9.00
2023-02-13T13:01:52.183Z,6.75
2023-02-13T13:07:30.291Z,9.25
2023-02-13T13:12:51.030Z,8.25
2023-02-13T13:18:05.260Z,4.75
2023-02-13T13:23:15.657Z,8.50
2023-02-13T13:28:23.518Z,6.00
2023-02-13T13:33:28.114Z,4.75
2023-02-13T13:38:43.885Z,84.60
2023-02-13T13:44:04.775Z,143.00
2023-02-13T13:49:19.238Z,155.60
2023-02-13T13:54:35.797Z,201.80
2023-02-13T14:00:01.002Z,221.40
2023-02-13T14:05:11.450Z,255.67
2023-02-13T14:11:03.352Z,208.40
2023-02-13T14:16:10.252Z,171.60
2023-02-13T14:21:17.883Z,165.40
2023-02-13T14:26:31.315Z,152.40
2023-02-13T14:31:39.207Z,137.80
2023-02-13T14:36:46.241Z,136.20
2023-02-13T14:42:01.547Z,135.00
2023-02-13T14:47:13.911Z,130.60
2023-02-13T14:52:21.595Z,127.40
2023-02-13T14:57:30.092Z,131.60
2023-02-13T15:02:38.952Z,122.80
2023-02-13T15:07:48.328Z,131.40
2023-02-13T15:12:59.379Z,120.40
2023-02-13T15:18:08.837Z,121.60
2023-02-13T15:23:24.523Z,114.40
2023-02-13T15:28:28.161Z,112.40
2023-02-13T15:33:38.296Z,104.40
2023-02-13T15:38:42.680Z,98.20
2023-02-13T15:43:48.459Z,108.80
2023-02-13T15:48:51.790Z,100.40
2023-02-13T15:53:58.462Z,112.00
2023-02-13T15:59:02.616Z,107.20
2023-02-13T16:04:10.391Z,106.20
2023-02-13T16:09:27.369Z,98.60
2023-02-13T16:14:31.788Z,99.20
2023-02-13T16:19:42.848Z,104.40
2023-02-13T16:24:51.545Z,96.20
2023-02-13T16:29:59.019Z,100.80
2023-02-13T16:35:27.209Z,97.00
2023-02-13T16:40:42.846Z,92.20
2023-02-13T16:45:45.943Z,93.80
2023-02-13T16:50:56.505Z,94.20
2023-02-13T16:56:03.594Z,86.40
2023-02-13T17:01:06.952Z,92.40
2023-02-13T17:06:11.585Z,89.00
2023-02-13T17:11:20.409Z,95.60
2023-02-13T17:16:23.224Z,78.60
2023-02-13T17:21:25.998Z,87.80
2023-02-13T17:26:30.182Z,83.60
2023-02-13T17:31:33.063Z,86.60
2023-02-13T17:36:36.169Z,75.80
2023-02-13T17:41:43.000Z,74.40
2023-02-13T17:46:45.981Z,71.60
2023-02-13T17:51:48.847Z,70.00
2023-02-13T17:56:53.074Z,71.00
2023-02-13T18:01:55.873Z,70.40
2023-02-13T18:06:59.369Z,69.00
2023-02-13T18:12:06.020Z,67.00
2023-02-13T18:17:09.123Z,64.60
2023-02-13T18:22:12.587Z,63.00
2023-02-13T18:27:17.748Z,60.00
2023-02-13T18:32:20.617Z,60.40
2023-02-13T18:37:23.493Z,57.60
2023-02-13T18:42:28.469Z,61.60
2023-02-13T18:47:31.353Z,57.20
2023-02-13T18:52:35.368Z,59.20
2023-02-13T18:57:43.376Z,56.20
2023-02-13T19:02:46.250Z,52.80
2023-02-13T19:07:49.253Z,53.80
2023-02-13T19:12:53.499Z,56.00
2023-02-13T19:17:57.482Z,53.40
2023-02-13T19:23:00.321Z,51.00
2023-02-13T19:28:05.489Z,54.20
2023-02-13T19:33:08.412Z,50.60
2023-02-13T19:38:11.647Z,53.40
2023-02-13T19:43:15.841Z,52.20
2023-02-13T19:48:18.781Z,50.00
2023-02-13T19:53:21.519Z,50.00
2023-02-13T19:58:25.678Z,52.80
2023-02-13T20:03:28.436Z,47.40
2023-02-13T20:08:31.239Z,48.80
2023-02-13T20:13:35.403Z,45.80
2023-02-13T20:18:39.412Z,48.20
2023-02-13T20:23:43.198Z,46.20
2023-02-13T20:28:47.941Z,47.80
2023-02-13T20:33:52.122Z,45.80
2023-02-13T20:38:56.594Z,45.80
2023-02-13T20:44:02.112Z,44.20
2023-02-13T20:49:05.165Z,46.40
2023-02-13T20:54:08.026Z,46.00
2023-02-13T20:59:12.682Z,46.80
2023-02-13T21:04:19.077Z,46.00
2023-02-13T21:09:21.956Z,44.20
2023-02-13T21:14:26.371Z,43.80
2023-02-13T21:19:31.153Z,45.00
2023-02-13T21:24:33.948Z,44.80
2023-02-13T21:29:39.044Z,43.80
2023-02-13T21:34:43.229Z,44.00
2023-02-13T21:39:46.057Z,43.40
2023-02-13T21:44:50.576Z,40.80
2023-02-13T21:49:53.336Z,42.40
2023-02-13T21:54:56.085Z,44.00
2023-02-13T22:00:02.071Z,37.20
2023-02-13T22:05:15.308Z,43.00
2023-02-13T22:10:18.432Z,43.80
2023-02-13T22:15:22.708Z,46.80
2023-02-13T22:20:26.514Z,40.60
2023-02-13T22:25:29.345Z,39.20
2023-02-13T22:30:33.605Z,43.80
2023-02-13T22:35:38.694Z,41.00
2023-02-13T22:40:41.633Z,35.80
2023-02-13T22:45:45.906Z,37.20
2023-02-13T22:50:48.793Z,39.20
2023-02-13T22:55:51.525Z,35.60
2023-02-13T23:00:55.960Z,36.00
2023-02-13T23:05:58.752Z,32.20
2023-02-13T23:11:24.060Z,37.00
2023-02-13T23:16:49.086Z,40.00
2023-02-13T23:21:52.130Z,35.00
2023-02-13T23:26:54.962Z,32.20
2023-02-13T23:31:59.309Z,34.60
2023-02-13T23:37:02.216Z,39.00
2023-02-13T23:42:05.339Z,35.20
2023-02-13T23:47:09.520Z,35.40
2023-02-13T23:52:12.322Z,33.80
2023-02-13T23:57:15.370Z,35.60
